Time;durP1;ratioP1;P1;durP2;ratioP2;P2;SDS_P1;SDS_P2;PMS_P1;PMS_P2;Temp;Humidity;BMP_temperature;BMP_pressure;BME280_temperature;BME280_humidity;BME280_pressure;Samples;Min_cycle;Max_cycle;Signal;HPM_P1;HPM_P2
2021/07/05 00:02:15;;;;;;;13.38;11.80;;;17.30;99.90;;;;;;5095606;28;20040;-70
2021/07/05 00:04:41;;;;;;;15.82;12.48;;;17.30;99.90;;;;;;5095714;28;20361;-70
2021/07/05 00:07:08;;;;;;;15.00;11.07;;;17.30;99.90;;;;;;5095526;28;20082;-70
2021/07/05 00:09:35;;;;;;;15.63;11.13;;;17.30;99.90;;;;;;5095248;28;20488;-69
2021/07/05 00:12:02;;;;;;;15.93;11.80;;;17.30;99.90;;;;;;5095253;28;20032;-70
2021/07/05 00:14:28;;;;;;;14.48;11.68;;;17.30;99.90;;;;;;5095612;28;20028;-70
2021/07/05 00:16:54;;;;;;;14.90;11.63;;;17.30;99.90;;;;;;5096049;28;20040;-70
2021/07/05 00:19:20;;;;;;;15.00;12.30;;;17.40;99.90;;;;;;5095399;28;20396;-70
2021/07/05 00:21:47;;;;;;;13.77;11.98;;;17.40;99.90;;;;;;5095496;28;20036;-70
2021/07/05 00:24:12;;;;;;;16.48;12.85;;;17.40;99.90;;;;;;5095694;28;20043;-70
2021/07/05 00:26:38;;;;;;;17.38;12.68;;;17.40;99.90;;;;;;5094830;28;20039;-70
2021/07/05 00:29:04;;;;;;;18.45;13.30;;;17.40;99.90;;;;;;5094863;28;20549;-70
2021/07/05 00:31:30;;;;;;;16.92;13.13;;;17.40;99.90;;;;;;5095003;28;20102;-70
2021/07/05 00:33:56;;;;;;;20.58;14.23;;;17.40;99.90;;;;;;5095554;28;20067;-70
2021/07/05 00:36:22;;;;;;;18.65;13.38;;;17.40;99.90;;;;;;5095550;28;20039;-70
2021/07/05 00:38:48;;;;;;;17.30;12.85;;;17.40;99.90;;;;;;5094859;28;20499;-70
2021/07/05 00:41:14;;;;;;;23.67;14.10;;;17.40;99.90;;;;;;5094803;28;20036;-70
2021/07/05 00:43:39;;;;;;;19.15;15.10;;;17.40;99.90;;;;;;5095602;28;20043;-70
2021/07/05 00:46:05;;;;;;;20.90;15.07;;;17.40;99.90;;;;;;5094796;28;20498;-70
2021/07/05 00:48:31;;;;;;;18.15;14.13;;;17.50;99.90;;;;;;5095010;28;20093;-70
2021/07/05 00:50:57;;;;;;;19.23;14.60;;;17.50;99.90;;;;;;5094934;28;20368;-70
2021/07/05 00:53:22;;;;;;;20.25;14.10;;;17.50;99.90;;;;;;5095251;28;20047;-70
2021/07/05 00:55:49;;;;;;;16.70;13.65;;;17.50;99.90;;;;;;5095168;28;20040;-70
2021/07/05 00:58:15;;;;;;;19.35;13.40;;;17.50;99.90;;;;;;5095290;28;20122;-70
2021/07/05 01:00:41;;;;;;;18.13;14.45;;;17.50;99.90;;;;;;5094613;28;20040;-70
2021/07/05 01:03:06;;;;;;;18.67;14.15;;;17.50;99.90;;;;;;5094693;28;20039;-70
2021/07/05 01:05:33;;;;;;;15.85;13.68;;;17.60;99.90;;;;;;5094844;28;20040;-70
2021/07/05 01:07:59;;;;;;;15.18;13.35;;;17.60;99.90;;;;;;5094356;28;20046;-70
2021/07/05 01:10:26;;;;;;;18.00;14.05;;;17.60;99.90;;;;;;5093994;28;20085;-70
2021/07/05 01:12:54;;;;;;;19.23;15.48;;;17.50;99.90;;;;;;5094504;28;20110;-70
2021/07/05 01:15:22;;;;;;;18.75;14.15;;;17.50;99.90;;;;;;5094665;28;20077;-70
2021/07/05 01:17:50;;;;;;;18.52;15.13;;;17.50;99.90;;;;;;5094254;28;20050;-70
2021/07/05 01:20:20;;;;;;;19.92;14.63;;;17.40;99.90;;;;;;5093818;28;20474;-70
2021/07/05 01:22:46;;;;;;;21.55;16.35;;;17.40;99.90;;;;;;5094675;28;20059;-70
2021/07/05 01:25:17;;;;;;;22.02;15.68;;;17.40;99.90;;;;;;5094378;28;20040;-70
2021/07/05 01:27:44;;;;;;;19.95;15.57;;;17.40;99.90;;;;;;5094090;28;20070;-70
2021/07/05 01:30:12;;;;;;;20.85;14.68;;;17.40;99.90;;;;;;5093891;28;20040;-70
2021/07/05 01:32:38;;;;;;;17.75;13.95;;;17.40;99.90;;;;;;5094334;28;20043;-70
2021/07/05 01:35:06;;;;;;;19.25;14.27;;;17.40;99.90;;;;;;5094066;28;20485;-70
2021/07/05 01:37:31;;;;;;;18.83;13.88;;;17.30;99.90;;;;;;5094064;28;20036;-70
2021/07/05 01:39:57;;;;;;;18.25;13.43;;;17.40;99.90;;;;;;5093528;28;20048;-70
2021/07/05 01:42:23;;;;;;;18.05;14.25;;;17.30;99.90;;;;;;5094088;28;20040;-70
2021/07/05 01:44:48;;;;;;;17.90;13.77;;;17.30;99.90;;;;;;5093877;28;20036;-70
2021/07/05 01:47:15;;;;;;;17.10;13.30;;;17.30;99.90;;;;;;5094023;28;20074;-70
2021/07/05 01:49:44;;;;;;;16.45;12.45;;;17.30;99.90;;;;;;5093479;28;20112;-70
2021/07/05 01:52:11;;;;;;;16.38;12.48;;;17.30;99.90;;;;;;5094177;28;20040;-70
2021/07/05 01:54:36;;;;;;;18.23;11.90;;;17.30;99.90;;;;;;5093598;28;20479;-70
2021/07/05 01:57:02;;;;;;;16.35;12.77;;;17.20;99.90;;;;;;5094305;28;20051;-70
2021/07/05 01:59:28;;;;;;;15.73;12.57;;;17.30;99.90;;;;;;5093453;28;20044;-69
2021/07/05 02:01:54;;;;;;;16.15;11.95;;;17.30;99.90;;;;;;5093480;28;20120;-70
2021/07/05 02:04:20;;;;;;;15.18;11.57;;;17.30;99.90;;;;;;5093962;28;20035;-70
2021/07/05 02:06:46;;;;;;;17.15;12.65;;;17.30;99.90;;;;;;5094223;28;20085;-69
2021/07/05 02:09:11;;;;;;;17.10;12.95;;;17.30;99.90;;;;;;5093245;28;20432;-70
2021/07/05 02:11:37;;;;;;;16.13;12.10;;;17.30;99.90;;;;;;5094027;28;20036;-70
2021/07/05 02:14:05;;;;;;;17.55;11.95;;;17.30;99.90;;;;;;5093565;28;20119;-70
2021/07/05 02:16:31;;;;;;;16.98;12.27;;;17.20;99.90;;;;;;5093379;28;20039;-70
2021/07/05 02:18:56;;;;;;;19.90;12.95;;;17.20;99.90;;;;;;5093187;28;20040;-70
2021/07/05 02:21:23;;;;;;;22.08;14.02;;;17.20;99.90;;;;;;5093265;28;20115;-70
2021/07/05 02:23:49;;;;;;;20.65;13.65;;;17.20;99.90;;;;;;5093819;28;20438;-70
2021/07/05 02:26:14;;;;;;;19.05;14.23;;;17.20;99.90;;;;;;5093566;28;20511;-70
2021/07/05 02:28:40;;;;;;;20.02;12.95;;;17.20;99.90;;;;;;5093080;28;20461;-70
2021/07/05 02:31:07;;;;;;;19.77;14.80;;;17.20;99.90;;;;;;5093652;28;20127;-70
2021/07/05 02:33:34;;;;;;;19.13;15.07;;;17.20;99.90;;;;;;5093327;28;20068;-70
2021/07/05 02:36:02;;;;;;;19.15;14.30;;;17.10;99.90;;;;;;5092493;28;20040;-70
2021/07/05 02:38:28;;;;;;;20.05;13.40;;;17.10;99.90;;;;;;5093587;28;20368;-70
2021/07/05 02:40:56;;;;;;;19.25;13.85;;;17.00;99.90;;;;;;5093113;28;20047;-69
2021/07/05 02:43:22;;;;;;;20.90;13.80;;;17.00;99.90;;;;;;5093353;28;20032;-70
2021/07/05 02:45:52;;;;;;;17.48;13.13;;;17.00;99.90;;;;;;5093227;28;20067;-70
2021/07/05 02:48:20;;;;;;;16.27;13.30;;;17.00;99.90;;;;;;5093229;28;20043;-70
2021/07/05 02:50:49;;;;;;;15.18;11.35;;;17.00;99.90;;;;;;5095487;28;20399;-70
2021/07/05 02:53:15;;;;;;;14.50;11.80;;;17.00;99.90;;;;;;5096991;28;20032;-70
2021/07/05 02:55:44;;;;;;;16.00;11.40;;;16.90;99.90;;;;;;5097120;28;20468;-70
2021/07/05 02:58:10;;;;;;;14.88;10.88;;;16.90;99.90;;;;;;5096948;28;20032;-70
2021/07/05 03:00:39;;;;;;;18.73;11.80;;;16.80;99.90;;;;;;5096254;28;20048;-70
2021/07/05 03:03:05;;;;;;;16.23;11.27;;;16.80;99.90;;;;;;5096821;28;20036;-70
2021/07/05 03:05:32;;;;;;;16.70;10.40;;;16.80;99.90;;;;;;5097131;28;20037;-70
2021/07/05 03:07:58;;;;;;;15.48;10.85;;;16.70;99.90;;;;;;5096697;28;20039;-70
2021/07/05 03:10:27;;;;;;;14.18;10.25;;;16.80;99.90;;;;;;5096882;28;20042;-70
2021/07/05 03:12:54;;;;;;;11.98;10.13;;;16.80;99.90;;;;;;5096937;28;20098;-70
2021/07/05 03:15:21;;;;;;;16.15;11.02;;;16.70;99.90;;;;;;5096565;28;20040;-70
2021/07/05 03:17:47;;;;;;;16.30;10.50;;;16.80;99.90;;;;;;5096962;28;20047;-70
2021/07/05 03:20:16;;;;;;;16.48;11.48;;;16.70;99.90;;;;;;5096549;28;20079;-70
2021/07/05 03:22:44;;;;;;;13.75;11.07;;;16.70;99.90;;;;;;5096586;28;20051;-70
2021/07/05 03:25:11;;;;;;;15.25;10.85;;;16.80;99.90;;;;;;5096432;28;20115;-70
2021/07/05 03:27:37;;;;;;;14.88;10.82;;;16.70;99.90;;;;;;5096731;28;20036;-70
2021/07/05 03:30:06;;;;;;;14.88;12.25;;;16.70;99.90;;;;;;5096669;28;20036;-69
2021/07/05 03:32:32;;;;;;;25.15;14.88;;;16.70;99.90;;;;;;5097115;28;20070;-70
2021/07/05 03:34:58;;;;;;;21.67;14.57;;;16.60;99.90;;;;;;5097000;28;20071;-70
2021/07/05 03:37:24;;;;;;;24.95;16.90;;;16.60;99.90;;;;;;5096554;28;20490;-70
2021/07/05 03:39:50;;;;;;;20.80;16.08;;;16.50;99.90;;;;;;5096125;28;20101;-70
2021/07/05 03:42:16;;;;;;;24.35;16.52;;;16.50;99.90;;;;;;5096493;28;20039;-70
2021/07/05 03:44:41;;;;;;;26.73;18.30;;;16.50;99.90;;;;;;5096573;28;20426;-70
2021/07/05 03:47:07;;;;;;;23.77;17.25;;;16.50;99.90;;;;;;5096553;28;20032;-70
2021/07/05 03:49:33;;;;;;;23.63;16.02;;;16.40;99.90;;;;;;5096148;28;20048;-70
2021/07/05 03:51:58;;;;;;;24.02;17.13;;;16.40;99.90;;;;;;5095793;28;20392;-70
2021/07/05 03:54:24;;;;;;;22.63;15.40;;;16.40;99.90;;;;;;5096117;28;20043;-70
2021/07/05 03:56:50;;;;;;;25.38;17.70;;;16.40;99.90;;;;;;5095759;28;20040;-70
2021/07/05 03:59:15;;;;;;;25.83;17.92;;;16.40;99.90;;;;;;5095456;28;20137;-70
2021/07/05 04:01:41;;;;;;;30.52;19.08;;;16.40;99.90;;;;;;5095706;28;20040;-69
2021/07/05 04:04:07;;;;;;;33.20;20.75;;;16.40;99.90;;;;;;5095899;28;20129;-69
2021/07/05 04:06:33;;;;;;;37.05;22.65;;;16.40;99.90;;;;;;5096080;28;20119;-69
2021/07/05 04:09:00;;;;;;;36.35;22.63;;;16.40;99.90;;;;;;5095381;28;20114;-69
2021/07/05 04:11:26;;;;;;;37.30;22.17;;;16.40;99.90;;;;;;5095995;28;20044;-70
2021/07/05 04:13:51;;;;;;;36.15;22.10;;;16.40;99.90;;;;;;5095959;28;20039;-70
2021/07/05 04:16:17;;;;;;;38.03;24.70;;;16.40;99.90;;;;;;5096077;28;20065;-70
2021/07/05 04:18:43;;;;;;;35.53;22.40;;;16.40;99.90;;;;;;5095881;28;20036;-70
2021/07/05 04:21:09;;;;;;;42.38;25.58;;;16.40;99.90;;;;;;5095232;28;20039;-70
2021/07/05 04:23:35;;;;;;;38.45;23.73;;;16.40;99.90;;;;;;5095351;28;20434;-70
2021/07/05 04:26:02;;;;;;;36.75;22.73;;;16.40;99.90;;;;;;5095202;28;20043;-70
2021/07/05 04:28:29;;;;;;;41.97;24.55;;;16.50;99.90;;;;;;5095644;28;20109;-71
2021/07/05 04:30:55;;;;;;;31.73;21.00;;;16.50;99.90;;;;;;5095187;28;20063;-70
2021/07/05 04:33:20;;;;;;;37.78;24.67;;;16.60;99.90;;;;;;5094936;28;20476;-70
2021/07/05 04:35:46;;;;;;;35.78;24.15;;;16.70;99.90;;;;;;5095155;28;20040;-71
2021/07/05 04:38:12;;;;;;;39.60;25.30;;;16.70;99.90;;;;;;5095154;28;20071;-70
2021/07/05 04:40:40;;;;;;;39.60;25.02;;;16.70;99.90;;;;;;5094691;28;20036;-70
2021/07/05 04:43:06;;;;;;;40.47;25.58;;;16.70;99.90;;;;;;5095477;28;20036;-70
2021/07/05 04:45:33;;;;;;;45.13;28.77;;;16.80;99.90;;;;;;5094900;28;20039;-70
2021/07/05 04:48:01;;;;;;;39.03;26.00;;;16.80;99.90;;;;;;5094790;28;20043;-70
2021/07/05 04:50:28;;;;;;;39.67;27.90;;;16.80;99.90;;;;;;5094498;28;20492;-70
2021/07/05 04:52:54;;;;;;;41.92;26.70;;;16.70;99.90;;;;;;5095278;28;20051;-70
2021/07/05 04:55:21;;;;;;;47.00;28.55;;;16.80;99.90;;;;;;5094783;28;20040;-70
2021/07/05 04:57:49;;;;;;;50.72;31.05;;;16.80;99.90;;;;;;5094390;28;20043;-70
2021/07/05 05:00:33;;;;;;;41.30;28.23;;;16.80;99.90;;;;;;5094295;28;20101;-69
2021/07/05 05:03:01;;;;;;;43.67;28.92;;;16.80;99.90;;;;;;5095077;28;20042;-70
2021/07/05 05:05:27;;;;;;;38.63;27.33;;;16.80;99.90;;;;;;5094801;28;20036;-70
2021/07/05 05:07:52;;;;;;;44.05;29.38;;;16.90;99.90;;;;;;5094854;28;20032;-70
2021/07/05 05:10:19;;;;;;;46.60;30.67;;;16.90;99.90;;;;;;5094623;28;20115;-70
2021/07/05 05:12:45;;;;;;;41.88;29.30;;;17.00;99.90;;;;;;5094088;28;20063;-70
2021/07/05 05:15:12;;;;;;;42.67;29.92;;;17.10;99.90;;;;;;5094497;28;20040;-70
2021/07/05 05:17:39;;;;;;;47.33;31.17;;;17.20;99.90;;;;;;5094625;28;20464;-70
2021/07/05 05:20:08;;;;;;;46.22;31.67;;;17.20;99.90;;;;;;5094060;28;20068;-70
2021/07/05 05:22:34;;;;;;;45.35;29.60;;;17.20;99.90;;;;;;5094131;28;20399;-70
2021/07/05 05:25:01;;;;;;;39.90;29.85;;;17.20;99.90;;;;;;5094273;28;20040;-69
2021/07/05 05:27:26;;;;;;;45.28;31.38;;;17.20;99.90;;;;;;5094746;28;20368;-70
2021/07/05 05:29:52;;;;;;;45.85;30.65;;;17.20;99.90;;;;;;5093852;28;20066;-70
2021/07/05 05:32:18;;;;;;;40.70;29.20;;;17.20;99.90;;;;;;5093944;28;20089;-70
2021/07/05 05:34:44;;;;;;;40.50;28.40;;;17.30;99.90;;;;;;5094108;28;20060;-71
2021/07/05 05:37:10;;;;;;;35.67;26.75;;;17.30;99.90;;;;;;5094495;28;20044;-71
2021/07/05 05:39:35;;;;;;;37.55;26.30;;;17.30;99.90;;;;;;5093515;28;20036;-71
2021/07/05 05:42:01;;;;;;;33.95;26.02;;;17.30;99.90;;;;;;5093713;28;20032;-71
2021/07/05 05:44:27;;;;;;;35.33;26.33;;;17.30;99.90;;;;;;5093842;28;20392;-71
2021/07/05 05:46:52;;;;;;;38.33;28.02;;;17.30;99.90;;;;;;5094324;28;20050;-71
2021/07/05 05:49:18;;;;;;;36.47;26.20;;;17.30;99.90;;;;;;5093489;28;20047;-71
2021/07/05 05:51:44;;;;;;;38.28;28.13;;;17.30;99.90;;;;;;5093653;28;20036;-71
2021/07/05 05:54:10;;;;;;;38.42;27.45;;;17.30;99.90;;;;;;5094425;28;20065;-71
2021/07/05 05:56:38;;;;;;;34.50;25.60;;;17.30;99.90;;;;;;5093656;28;20480;-71
2021/07/05 05:59:07;;;;;;;33.30;25.83;;;17.30;99.90;;;;;;5093241;28;20551;-71
2021/07/05 06:01:34;;;;;;;33.50;23.67;;;17.40;99.90;;;;;;5093718;28;20040;-71
2021/07/05 06:04:01;;;;;;;31.52;23.25;;;17.30;99.90;;;;;;5093654;28;20043;-71
2021/07/05 06:06:27;;;;;;;28.27;22.13;;;17.40;99.90;;;;;;5094064;28;20040;-71
2021/07/05 06:08:53;;;;;;;28.95;21.83;;;17.40;99.90;;;;;;5093176;28;20036;-71
2021/07/05 06:11:19;;;;;;;27.70;21.33;;;17.40;99.90;;;;;;5093637;28;20044;-71
2021/07/05 06:13:45;;;;;;;24.83;20.02;;;17.50;99.90;;;;;;5093344;28;20043;-71
2021/07/05 06:16:11;;;;;;;27.85;19.52;;;17.40;99.90;;;;;;5093619;28;20329;-71
2021/07/05 06:18:37;;;;;;;28.80;21.92;;;17.40;99.90;;;;;;5093218;28;20036;-69
2021/07/05 06:21:03;;;;;;;25.50;19.92;;;17.50;99.90;;;;;;5093983;28;20426;-69
2021/07/05 06:23:29;;;;;;;25.58;19.98;;;17.40;99.90;;;;;;5093869;28;20388;-69
2021/07/05 06:25:57;;;;;;;25.55;18.70;;;17.40;99.90;;;;;;5096299;28;20036;-69
2021/07/05 06:28:25;;;;;;;25.60;19.77;;;17.40;99.90;;;;;;5097503;28;20080;-69
2021/07/05 06:30:51;;;;;;;25.40;19.33;;;17.40;99.90;;;;;;5097118;28;20075;-69
2021/07/05 06:33:18;;;;;;;27.42;18.92;;;17.30;99.90;;;;;;5097221;28;20068;-69
2021/07/05 06:35:44;;;;;;;25.23;18.73;;;17.30;99.90;;;;;;5097350;28;20093;-69
2021/07/05 06:38:11;;;;;;;23.45;18.65;;;17.30;99.90;;;;;;5097023;28;20040;-69
2021/07/05 06:40:37;;;;;;;30.40;19.58;;;17.30;99.90;;;;;;5096976;28;20047;-69
2021/07/05 06:43:03;;;;;;;26.60;19.60;;;17.20;99.90;;;;;;5097160;28;20092;-69
2021/07/05 06:45:30;;;;;;;23.77;17.88;;;17.20;99.90;;;;;;5097547;28;20058;-69
2021/07/05 06:47:55;;;;;;;32.65;20.98;;;17.20;99.90;;;;;;5097621;28;20107;-69
2021/07/05 06:50:21;;;;;;;26.75;19.63;;;17.10;99.90;;;;;;5096626;28;20440;-69
2021/07/05 06:52:47;;;;;;;25.70;19.67;;;17.10;99.90;;;;;;5097719;28;20036;-69
2021/07/05 06:55:13;;;;;;;28.08;20.27;;;17.00;99.90;;;;;;5097155;28;20372;-69
2021/07/05 06:57:40;;;;;;;28.20;20.98;;;17.00;99.90;;;;;;5096075;28;20043;-69
2021/07/05 07:00:09;;;;;;;27.52;19.52;;;17.00;99.90;;;;;;5096773;28;20092;-69
2021/07/05 07:02:37;;;;;;;31.40;20.55;;;17.00;99.90;;;;;;5096904;28;20043;-69
2021/07/05 07:05:07;;;;;;;23.95;18.35;;;17.00;99.90;;;;;;5097457;28;20072;-69
2021/07/05 07:07:33;;;;;;;26.77;19.52;;;16.90;99.90;;;;;;5097546;28;20070;-69
2021/07/05 07:10:00;;;;;;;27.17;18.92;;;16.90;99.90;;;;;;5096503;28;20471;-69
2021/07/05 07:12:25;;;;;;;21.52;15.65;;;16.90;99.90;;;;;;5095408;28;20063;-69
2021/07/05 07:14:51;;;;;;;13.43;10.70;;;16.90;99.90;;;;;;5097344;28;20040;-69
2021/07/05 07:17:23;;;;;;;17.77;9.82;;;16.80;99.90;;;;;;5097191;28;20055;-69
2021/07/05 07:19:49;;;;;;;16.63;8.30;;;16.70;99.90;;;;;;5096440;28;20036;-70
2021/07/05 07:22:15;;;;;;;9.52;5.00;;;16.60;99.90;;;;;;5096497;28;20039;-69
2021/07/05 07:24:41;;;;;;;5.07;2.85;;;16.50;99.90;;;;;;5097059;28;20035;-70
2021/07/05 07:27:07;;;;;;;6.47;2.20;;;16.30;99.90;;;;;;5096825;28;20036;-70
2021/07/05 07:29:32;;;;;;;5.50;2.08;;;16.10;99.90;;;;;;5096082;28;20051;-70
2021/07/05 07:31:58;;;;;;;3.00;1.80;;;16.00;99.90;;;;;;5096854;28;20032;-69
2021/07/05 07:34:24;;;;;;;5.30;2.17;;;15.90;99.90;;;;;;5096624;28;20122;-70
2021/07/05 07:36:49;;;;;;;5.60;2.40;;;15.70;99.90;;;;;;5095845;28;20093;-70
2021/07/05 07:39:19;;;;;;;3.60;2.08;;;15.70;99.90;;;;;;5095888;28;20085;-70
2021/07/05 07:41:45;;;;;;;2.33;1.60;;;15.60;99.90;;;;;;5096267;28;20480;-70
2021/07/05 07:44:10;;;;;;;6.25;2.22;;;15.60;99.90;;;;;;5096131;28;20051;-70
2021/07/05 07:46:36;;;;;;;4.40;1.85;;;15.50;99.90;;;;;;5096602;28;20036;-70
2021/07/05 07:49:02;;;;;;;2.15;1.92;;;15.50;99.90;;;;;;5095992;28;20040;-70
2021/07/05 07:51:28;;;;;;;4.22;1.75;;;15.50;99.90;;;;;;5095818;28;20036;-70
2021/07/05 07:53:56;;;;;;;2.97;1.73;;;15.40;99.90;;;;;;5094947;28;20036;-70
2021/07/05 07:56:21;;;;;;;5.03;1.63;;;15.40;99.90;;;;;;5095228;28;20055;-70
2021/07/05 07:58:48;;;;;;;4.95;1.73;;;15.40;99.90;;;;;;5095766;28;20036;-71
2021/07/05 08:01:14;;;;;;;3.25;1.60;;;15.40;99.90;;;;;;5095658;28;20055;-71
2021/07/05 08:03:39;;;;;;;1.80;1.30;;;15.50;99.90;;;;;;5096293;28;20369;-71
2021/07/05 08:06:05;;;;;;;6.70;2.60;;;15.50;99.90;;;;;;5095690;28;20065;-71
2021/07/05 08:08:31;;;;;;;3.03;1.85;;;15.50;99.90;;;;;;5095166;28;20044;-71
2021/07/05 08:10:57;;;;;;;3.15;2.03;;;15.50;99.90;;;;;;5095671;28;20039;-71
2021/07/05 08:13:22;;;;;;;4.13;2.38;;;15.60;99.90;;;;;;5096043;28;20468;-71
2021/07/05 08:15:48;;;;;;;7.35;2.40;;;15.60;99.90;;;;;;5096070;28;20464;-70
2021/07/05 08:18:15;;;;;;;5.22;2.47;;;15.60;99.90;;;;;;5095942;28;20089;-71
2021/07/05 08:20:41;;;;;;;3.75;2.33;;;15.60;99.90;;;;;;5095259;28;20120;-70
2021/07/05 08:23:06;;;;;;;3.03;2.30;;;15.60;99.90;;;;;;5095853;28;20036;-70
2021/07/05 08:25:32;;;;;;;4.68;3.10;;;15.60;99.90;;;;;;5095454;28;20040;-70
2021/07/05 08:27:59;;;;;;;4.68;3.00;;;15.60;99.90;;;;;;5095175;28;20039;-70
2021/07/05 08:30:26;;;;;;;2.95;2.47;;;15.70;99.90;;;;;;5094796;28;20040;-70
2021/07/05 08:32:53;;;;;;;3.20;1.90;;;15.70;99.90;;;;;;5094998;28;20042;-70
2021/07/05 08:35:21;;;;;;;3.80;2.03;;;15.80;99.90;;;;;;5094994;28;20036;-70
2021/07/05 08:37:48;;;;;;;5.55;2.63;;;15.80;99.90;;;;;;5095177;28;20484;-72
2021/07/05 08:40:15;;;;;;;6.15;4.50;;;15.90;99.90;;;;;;5094640;28;20545;-71
2021/07/05 08:42:42;;;;;;;6.32;4.15;;;16.00;99.90;;;;;;5095199;28;20040;-72
2021/07/05 08:45:08;;;;;;;4.47;4.05;;;16.00;99.90;;;;;;5094844;28;20032;-72
2021/07/05 08:47:37;;;;;;;6.57;5.07;;;16.10;99.90;;;;;;5093871;28;20426;-72
2021/07/05 08:50:05;;;;;;;9.90;5.85;;;16.20;99.90;;;;;;5094406;28;20046;-72
2021/07/05 08:52:35;;;;;;;6.55;5.85;;;16.40;99.90;;;;;;5093976;28;20427;-72
2021/07/05 08:55:02;;;;;;;8.27;5.55;;;16.60;99.90;;;;;;5095354;28;20155;-72
2021/07/05 08:57:30;;;;;;;8.55;5.47;;;16.60;99.90;;;;;;5094749;28;20092;-72
2021/07/05 08:59:57;;;;;;;6.43;5.35;;;16.80;99.90;;;;;;5094295;28;20063;-72
2021/07/05 09:02:23;;;;;;;7.53;5.05;;;17.10;99.90;;;;;;5094859;28;20411;-72
2021/07/05 09:04:49;;;;;;;5.15;4.07;;;17.50;99.90;;;;;;5094787;28;20111;-72
2021/07/05 09:07:15;;;;;;;6.95;3.55;;;17.80;99.90;;;;;;5094643;28;20111;-72
2021/07/05 09:10:00;;;;;;;6.85;3.13;;;17.90;99.90;;;;;;5094378;28;20116;-72
2021/07/05 09:12:27;;;;;;;4.97;3.95;;;18.20;99.90;;;;;;5094625;28;20521;-72
2021/07/05 09:15:12;;;;;;;6.10;4.65;;;18.40;99.90;;;;;;5094428;28;20081;-72
2021/07/05 09:17:41;;;;;;;9.43;4.53;;;18.70;99.90;;;;;;5094955;28;20107;-72
2021/07/05 09:20:13;;;;;;;6.50;4.68;;;19.00;99.90;;;;;;5094267;28;20040;-72
2021/07/05 09:22:58;;;;;;;8.88;5.63;;;19.30;99.90;;;;;;5094891;28;20498;-72
2021/07/05 09:25:38;;;;;;;6.78;4.03;;;19.30;99.90;;;;;;5094044;28;20391;-74
2021/07/05 09:28:04;;;;;;;7.43;4.53;;;19.20;99.90;;;;;;5094066;28;20043;-72
2021/07/05 09:30:45;;;;;;;6.85;4.30;;;19.00;99.90;;;;;;5093812;28;20472;-72
2021/07/05 09:33:21;;;;;;;9.73;5.28;;;18.90;99.90;;;;;;5094047;28;20040;-73
2021/07/05 09:35:53;;;;;;;9.32;5.10;;;18.90;99.90;;;;;;5094128;28;20086;-73
2021/07/05 09:38:41;;;;;;;10.93;6.65;;;18.80;99.90;;;;;;5093959;28;20079;-73
2021/07/05 09:41:22;;;;;;;9.20;6.03;;;18.60;99.90;;;;;;5094428;28;20373;-72
2021/07/05 09:43:54;;;;;;;9.82;6.05;;;18.50;99.90;;;;;;5093788;28;20039;-72
2021/07/05 09:46:36;;;;;;;9.27;6.10;;;18.30;99.90;;;;;;5094029;28;20464;-72
2021/07/05 09:49:28;;;;;;;11.93;6.75;;;18.10;99.90;;;;;;5093543;28;20039;-72
2021/07/05 09:52:06;;;;;;;9.68;7.07;;;18.00;99.90;;;;;;5094007;28;20039;-72
2021/07/05 09:54:33;;;;;;;11.40;7.13;;;17.90;99.90;;;;;;5093751;28;20032;-72
2021/07/05 09:57:00;;;;;;;12.23;8.07;;;17.90;99.90;;;;;;5093952;28;20111;-72
2021/07/05 09:59:27;;;;;;;10.82;8.38;;;17.80;99.90;;;;;;5092915;28;20040;-72
2021/07/05 10:01:54;;;;;;;13.95;9.07;;;17.90;99.90;;;;;;5093821;28;20487;-72
2021/07/05 10:04:31;;;;;;;11.65;8.40;;;17.90;99.90;;;;;;5094143;28;20040;-72
2021/07/05 10:07:03;;;;;;;15.52;9.20;;;18.20;99.90;;;;;;5094285;28;20452;-72
2021/07/05 10:09:40;;;;;;;13.90;10.65;;;18.80;99.90;;;;;;5093434;28;20040;-72
2021/07/05 10:12:19;;;;;;;11.52;9.93;;;19.10;99.90;;;;;;5093708;28;20544;-72
2021/07/05 10:15:02;;;;;;;15.13;10.68;;;19.20;99.90;;;;;;5094100;28;20043;-72
2021/07/05 10:17:29;;;;;;;15.63;10.40;;;19.10;99.90;;;;;;5093494;28;20039;-72
2021/07/05 10:19:55;;;;;;;14.13;10.95;;;19.30;99.90;;;;;;5093211;28;20411;-72
2021/07/05 10:22:21;;;;;;;16.38;11.05;;;19.50;99.90;;;;;;5093382;28;20436;-72
2021/07/05 10:24:48;;;;;;;13.82;10.70;;;19.80;99.90;;;;;;5093918;28;20078;-72
2021/07/05 10:27:14;;;;;;;15.07;10.93;;;19.70;99.90;;;;;;5093170;28;20032;-72
2021/07/05 10:29:42;;;;;;;13.00;10.02;;;19.80;99.90;;;;;;5092986;28;20052;-72
2021/07/05 10:32:09;;;;;;;14.20;11.07;;;19.60;99.90;;;;;;5093419;28;20119;-73
2021/07/05 10:34:37;;;;;;;12.35;9.38;;;19.70;99.90;;;;;;5093598;28;20372;-70
2021/07/05 10:37:05;;;;;;;13.60;9.35;;;20.00;99.90;;;;;;5093049;28;20139;-71
2021/07/05 10:39:33;;;;;;;11.00;8.77;;;20.20;99.90;;;;;;5091890;28;20044;-71
2021/07/05 10:41:59;;;;;;;16.55;9.90;;;20.30;99.90;;;;;;5093646;28;20090;-70
2021/07/05 10:44:44;;;;;;;10.30;8.57;;;20.60;99.90;;;;;;5091440;28;20044;-71
2021/07/05 10:47:10;;;;;;;13.70;9.13;;;20.80;99.90;;;;;;5093411;28;20044;-70
2021/07/05 10:49:46;;;;;;;12.15;8.10;;;20.90;99.90;;;;;;5092794;28;20097;-71
2021/07/05 10:52:16;;;;;;;12.52;7.32;;;21.10;99.90;;;;;;5093462;28;20555;-71
2021/07/05 10:54:52;;;;;;;12.50;8.02;;;21.30;99.90;;;;;;5093085;28;20089;-72
2021/07/05 10:57:37;;;;;;;12.00;8.93;;;21.40;99.90;;;;;;5093427;28;20119;-70
2021/07/05 11:00:18;;;;;;;14.20;8.80;;;21.20;99.90;;;;;;5092363;28;20071;-71
2021/07/05 11:02:46;;;;;;;12.90;8.40;;;21.00;99.90;;;;;;5091809;28;20544;-70
2021/07/05 11:05:34;;;;;;;11.13;8.57;;;20.70;99.90;;;;;;5093681;28;20033;-70
2021/07/05 11:08:24;;;;;;;14.30;8.38;;;20.60;99.90;;;;;;5093019;28;20032;-69
2021/07/05 11:11:10;;;;;;;12.93;8.75;;;20.40;99.90;;;;;;5092225;28;20115;-69
2021/07/05 11:13:36;;;;;;;15.48;8.50;;;20.50;99.90;;;;;;5096560;28;20438;-69
2021/07/05 11:16:03;;;;;;;16.08;8.80;;;20.60;99.90;;;;;;5096852;28;20392;-70
2021/07/05 11:18:38;;;;;;;12.80;9.18;;;20.50;99.90;;;;;;5096566;28;20043;-70
2021/07/05 11:21:23;;;;;;;15.65;8.40;;;20.40;99.90;;;;;;5096678;28;20036;-69
2021/07/05 11:26:22;;;;;;;13.13;7.78;;;20.60;99.90;;;;;;5096315;28;20039;-70
2021/07/05 11:29:24;;;;;;;12.35;6.93;;;20.90;99.90;;;;;;5096067;28;20040;-70
2021/07/05 11:31:58;;;;;;;9.98;7.00;;;21.00;99.90;;;;;;5096224;28;20074;-70
2021/07/05 11:34:35;;;;;;;10.75;6.60;;;21.10;99.90;;;;;;5096629;28;20032;-70
2021/07/05 11:37:13;;;;;;;10.65;7.55;;;21.40;99.90;;;;;;5096737;28;20047;-70
2021/07/05 11:39:40;;;;;;;10.07;6.95;;;21.50;99.90;;;;;;5095815;28;20039;-70
2021/07/05 11:42:06;;;;;;;13.05;7.72;;;21.50;99.90;;;;;;5096113;28;20040;-70
2021/07/05 11:44:51;;;;;;;14.45;7.50;;;21.60;99.90;;;;;;5096683;28;20063;-70
2021/07/05 11:47:43;;;;;;;13.93;8.82;;;21.60;99.90;;;;;;5096170;28;20047;-70
2021/07/05 11:50:20;;;;;;;10.70;7.65;;;21.60;99.90;;;;;;5095452;28;20070;-70
2021/07/05 11:52:51;;;;;;;11.48;8.57;;;21.60;99.90;;;;;;5096539;28;20573;-70
2021/07/05 11:55:19;;;;;;;11.80;6.70;;;21.30;99.90;;;;;;5096378;28;20036;-68
2021/07/05 11:57:57;;;;;;;9.60;6.80;;;21.30;99.90;;;;;;5096024;28;20032;-68
2021/07/05 12:00:24;;;;;;;10.85;8.10;;;21.50;99.90;;;;;;5095959;28;20556;-69
2021/07/05 12:03:06;;;;;;;13.30;7.80;;;21.60;99.90;;;;;;5095975;28;20450;-70
2021/07/05 12:05:33;;;;;;;11.80;8.32;;;21.60;99.90;;;;;;5095856;28;20063;-70
2021/07/05 12:08:26;;;;;;;11.55;7.85;;;21.60;99.90;;;;;;5095944;28;20593;-70
2021/07/05 12:10:57;;;;;;;12.63;6.43;;;21.60;99.90;;;;;;5095363;28;20512;-70
2021/07/05 12:13:28;;;;;;;11.40;7.20;;;21.50;99.90;;;;;;5095582;28;20040;-69
2021/07/05 12:15:56;;;;;;;12.52;6.85;;;21.70;99.90;;;;;;5095851;28;20495;-69
2021/07/05 12:18:22;;;;;;;11.63;6.55;;;21.70;99.90;;;;;;5095096;28;20044;-70
2021/07/05 12:21:06;;;;;;;11.02;6.55;;;21.80;99.90;;;;;;5095126;28;20040;-69
2021/07/05 12:23:40;;;;;;;12.13;7.20;;;21.90;99.90;;;;;;5095980;28;20047;-69
2021/07/05 12:26:17;;;;;;;11.70;7.72;;;21.80;99.30;;;;;;5095961;28;20387;-70
2021/07/05 12:29:02;;;;;;;14.93;9.57;;;21.60;99.90;;;;;;5095235;28;20074;-70
2021/07/05 12:31:28;;;;;;;12.48;7.10;;;21.40;99.90;;;;;;5096069;28;20036;-70
2021/07/05 12:33:54;;;;;;;10.45;6.63;;;21.40;99.90;;;;;;5095466;28;20040;-69
2021/07/05 12:36:20;;;;;;;9.75;6.75;;;21.50;99.50;;;;;;5095272;28;20140;-70
2021/07/05 12:39:06;;;;;;;6.78;5.47;;;21.70;98.80;;;;;;5095131;28;20046;-70
2021/07/05 12:41:36;;;;;;;12.02;6.10;;;21.60;97.00;;;;;;5095202;28;20453;-70
2021/07/05 12:44:16;;;;;;;10.65;6.45;;;21.70;97.50;;;;;;5095343;28;20040;-70